createdAt,value
2023-03-27T00:01:27.646Z,7.05
2023-03-27T00:03:55.749Z,7.04
2023-03-27T00:06:25.087Z,7.02
2023-03-27T00:08:52.392Z,7.01
2023-03-27T00:11:21.205Z,7.00
2023-03-27T00:13:51.309Z,6.99
2023-03-27T00:16:21.767Z,7.00
2023-03-27T00:18:48.794Z,6.99
2023-03-27T00:21:15.954Z,6.97
2023-03-27T00:23:42.907Z,6.97
2023-03-27T00:26:10.120Z,6.94
2023-03-27T00:28:37.142Z,6.91
2023-03-27T00:31:04.256Z,6.89
2023-03-27T00:33:31.146Z,6.88
2023-03-27T00:35:58.080Z,6.88
2023-03-27T00:38:24.838Z,6.88
2023-03-27T00:40:54.825Z,6.89
2023-03-27T00:43:28.175Z,6.90
2023-03-27T00:46:01.733Z,6.91
2023-03-27T00:48:31.270Z,6.92
2023-03-27T00:50:59.242Z,6.92
2023-03-27T00:53:28.890Z,6.93
2023-03-27T00:56:01.378Z,6.94
2023-03-27T00:58:42.696Z,6.94
2023-03-27T01:01:13.140Z,6.94
2023-03-27T01:03:42.597Z,6.92
2023-03-27T01:06:14.029Z,6.91
2023-03-27T01:08:43.301Z,6.89
2023-03-27T01:11:30.903Z,6.84
2023-03-27T01:14:25.438Z,6.79
2023-03-27T01:17:07.637Z,6.75
2023-03-27T01:20:14.821Z,6.72
2023-03-27T01:23:09.389Z,6.67
2023-03-27T01:26:06.054Z,6.63
2023-03-27T01:29:12.810Z,6.62
2023-03-27T01:32:07.570Z,6.60
2023-03-27T01:34:42.811Z,6.59
2023-03-27T01:37:18.497Z,6.59
2023-03-27T01:39:55.795Z,6.59
2023-03-27T01:42:26.028Z,6.60
2023-03-27T01:45:21.296Z,6.59
2023-03-27T01:48:06.210Z,6.59
2023-03-27T01:50:37.737Z,6.59
2023-03-27T01:53:30.712Z,6.58
2023-03-27T01:56:04.560Z,6.56
2023-03-27T01:58:48.146Z,6.56
2023-03-27T02:01:24.748Z,6.56
2023-03-27T02:03:58.139Z,6.56
2023-03-27T02:06:33.659Z,6.55
2023-03-27T02:09:08.688Z,6.55
2023-03-27T02:11:41.491Z,6.55
2023-03-27T02:14:17.241Z,6.54
2023-03-27T02:16:47.897Z,6.54
2023-03-27T02:19:23.478Z,6.53
2023-03-27T02:21:50.329Z,6.52
2023-03-27T02:24:18.876Z,6.51
2023-03-27T02:26:50.487Z,6.50
2023-03-27T02:29:28.084Z,6.50
2023-03-27T02:32:25.406Z,6.50
2023-03-27T02:35:10.337Z,6.49
2023-03-27T02:38:08.385Z,6.48
2023-03-27T02:40:55.011Z,6.47
2023-03-27T02:43:34.681Z,6.47
2023-03-27T02:46:31.680Z,6.48
2023-03-27T02:49:04.920Z,6.48
2023-03-27T02:51:37.842Z,6.49
2023-03-27T02:54:40.584Z,6.48
2023-03-27T02:57:14.447Z,6.49
2023-03-27T02:59:50.955Z,6.49
2023-03-27T03:02:25.672Z,6.49
2023-03-27T03:04:59.195Z,6.50
2023-03-27T03:07:29.081Z,6.50
2023-03-27T03:09:55.682Z,6.50
2023-03-27T03:12:23.340Z,6.49
2023-03-27T03:14:50.287Z,6.48
2023-03-27T03:17:17.497Z,6.48
2023-03-27T03:19:44.189Z,6.47
2023-03-27T03:22:11.669Z,6.47
2023-03-27T03:24:42.384Z,6.47
2023-03-27T03:27:09.892Z,6.46
2023-03-27T03:29:37.660Z,6.44
2023-03-27T03:32:06.440Z,6.44
2023-03-27T03:34:36.865Z,6.42
2023-03-27T03:37:03.773Z,6.41
2023-03-27T03:39:30.982Z,6.41
2023-03-27T03:41:57.727Z,6.40
2023-03-27T03:44:24.587Z,6.40
2023-03-27T03:46:51.322Z,6.39
2023-03-27T03:49:18.025Z,6.39
2023-03-27T03:51:44.807Z,6.40
2023-03-27T03:54:12.169Z,6.40
2023-03-27T03:56:41.761Z,6.40
2023-03-27T03:59:10.126Z,6.39
2023-03-27T04:01:36.917Z,6.39
2023-03-27T04:04:04.464Z,6.38
2023-03-27T04:06:32.693Z,6.38
2023-03-27T04:08:59.520Z,6.37
2023-03-27T04:11:26.381Z,6.36
2023-03-27T04:13:53.148Z,6.35
2023-03-27T04:16:20.170Z,6.35
2023-03-27T04:18:50.762Z,6.34
2023-03-27T04:21:17.900Z,6.33
2023-03-27T04:23:48.770Z,6.32
2023-03-27T04:26:16.400Z,6.32
2023-03-27T04:28:43.500Z,6.31
2023-03-27T04:31:11.073Z,6.31
2023-03-27T04:33:40.194Z,6.31
2023-03-27T04:36:08.941Z,6.31
2023-03-27T04:38:40.948Z,6.32
2023-03-27T04:41:08.217Z,6.32
2023-03-27T04:43:37.013Z,6.33
2023-03-27T04:46:08.152Z,6.31
2023-03-27T04:48:39.084Z,6.29
2023-03-27T04:51:07.297Z,6.27
2023-03-27T04:53:36.564Z,6.25
2023-03-27T04:56:05.596Z,6.24
2023-03-27T04:58:33.402Z,6.24
2023-03-27T05:01:02.584Z,6.25
2023-03-27T05:03:29.526Z,6.25
2023-03-27T05:05:56.550Z,6.24
2023-03-27T05:08:23.265Z,6.24
2023-03-27T05:10:50.060Z,6.24
2023-03-27T05:13:16.802Z,6.24
2023-03-27T05:15:43.816Z,6.24
2023-03-27T05:18:10.866Z,6.25
2023-03-27T05:20:37.762Z,6.25
2023-03-27T05:23:04.620Z,6.25
2023-03-27T05:25:33.048Z,6.25
2023-03-27T05:28:00.762Z,6.26
2023-03-27T05:30:28.323Z,6.27
2023-03-27T05:32:58.430Z,6.27
2023-03-27T05:35:28.700Z,6.27
2023-03-27T05:37:57.398Z,6.29
2023-03-27T05:40:26.854Z,6.31
2023-03-27T05:42:55.502Z,6.32
2023-03-27T05:45:23.508Z,6.33
2023-03-27T05:47:56.227Z,6.33
2023-03-27T05:50:25.796Z,6.31
2023-03-27T05:53:01.600Z,6.29
2023-03-27T05:55:28.835Z,6.30
2023-03-27T05:57:55.638Z,6.30
2023-03-27T06:00:26.251Z,6.32
2023-03-27T06:02:58.341Z,6.33
2023-03-27T06:05:27.822Z,6.33
2023-03-27T06:07:54.621Z,6.34
2023-03-27T06:10:22.141Z,6.34
2023-03-27T06:12:49.463Z,6.36
2023-03-27T06:15:17.138Z,6.37
2023-03-27T06:17:47.699Z,6.38
2023-03-27T06:20:15.693Z,6.39
2023-03-27T06:22:49.087Z,6.39
2023-03-27T06:25:16.851Z,6.40
2023-03-27T06:27:45.763Z,6.41
2023-03-27T06:30:17.574Z,6.41
2023-03-27T06:32:52.598Z,6.42
2023-03-27T06:35:21.220Z,6.43
2023-03-27T06:37:51.344Z,6.45
2023-03-27T06:40:24.396Z,6.46
2023-03-27T06:43:02.873Z,6.46
2023-03-27T06:45:33.527Z,6.44
2023-03-27T06:48:17.947Z,6.43
2023-03-27T06:50:49.831Z,6.40
2023-03-27T06:55:48.240Z,6.39
2023-03-27T06:58:15.300Z,6.38
2023-03-27T07:00:43.655Z,6.37
2023-03-27T07:03:12.111Z,6.37
2023-03-27T07:05:41.083Z,6.35
2023-03-27T07:08:22.527Z,6.35
2023-03-27T07:11:07.518Z,6.37
2023-03-27T07:13:38.977Z,6.40
2023-03-27T07:16:06.470Z,6.40
2023-03-27T07:18:33.424Z,6.41
2023-03-27T07:21:00.878Z,6.41
2023-03-27T07:23:27.811Z,6.43
2023-03-27T07:26:01.935Z,6.46
2023-03-27T07:28:28.918Z,6.48
2023-03-27T07:30:56.284Z,6.49
2023-03-27T07:33:24.110Z,6.51
2023-03-27T07:35:51.177Z,6.54
2023-03-27T07:38:18.734Z,6.57
2023-03-27T07:40:46.867Z,6.60
2023-03-27T07:43:15.838Z,6.64
2023-03-27T07:45:42.649Z,6.68
2023-03-27T07:48:15.028Z,6.71
2023-03-27T07:50:43.350Z,6.71
2023-03-27T07:53:33.285Z,6.73
2023-03-27T07:56:03.813Z,6.77
2023-03-27T07:58:31.168Z,6.81
2023-03-27T08:01:02.874Z,6.81
2023-03-27T08:03:31.060Z,6.80
2023-03-27T08:06:00.305Z,6.79
2023-03-27T08:08:28.427Z,6.74
2023-03-27T08:10:55.524Z,6.69
2023-03-27T08:13:22.590Z,6.68
2023-03-27T08:15:49.706Z,6.67
2023-03-27T08:18:16.894Z,6.67
2023-03-27T08:20:43.784Z,6.68
2023-03-27T08:23:10.860Z,6.65
2023-03-27T08:25:37.635Z,6.62
2023-03-27T08:28:04.423Z,6.62
2023-03-27T08:30:31.254Z,6.62
2023-03-27T08:33:00.318Z,6.61
2023-03-27T08:35:27.347Z,6.61
2023-03-27T08:37:54.109Z,6.59
2023-03-27T08:40:29.714Z,6.59
2023-03-27T08:43:03.436Z,6.56
2023-03-27T08:45:38.971Z,6.54
2023-03-27T08:48:14.914Z,6.55
2023-03-27T08:50:47.315Z,6.55
2023-03-27T08:53:31.115Z,6.55
2023-03-27T08:55:58.476Z,6.54
2023-03-27T08:58:25.494Z,6.55
2023-03-27T09:01:26.669Z,6.56
2023-03-27T09:04:17.742Z,6.60
2023-03-27T09:06:54.854Z,6.60
2023-03-27T09:09:35.339Z,6.56
2023-03-27T09:12:31.216Z,6.52
2023-03-27T09:15:08.276Z,6.51
2023-03-27T09:17:46.893Z,6.51
2023-03-27T09:20:18.105Z,6.50
2023-03-27T09:22:58.233Z,6.47
2023-03-27T09:25:46.846Z,6.45
2023-03-27T09:28:23.929Z,6.44
2023-03-27T09:30:51.267Z,6.44
2023-03-27T09:33:18.149Z,6.42
2023-03-27T09:35:45.901Z,6.38
2023-03-27T09:38:18.798Z,6.35
2023-03-27T09:40:56.405Z,6.31
2023-03-27T09:43:28.907Z,6.29
2023-03-27T09:45:58.314Z,6.25
2023-03-27T09:48:39.835Z,6.23
2023-03-27T09:51:40.916Z,6.18
2023-03-27T09:54:09.647Z,6.12
2023-03-27T09:56:43.867Z,6.09
2023-03-27T09:59:21.011Z,6.06
2023-03-27T10:01:50.646Z,6.04
2023-03-27T10:04:21.963Z,6.02
2023-03-27T10:07:05.760Z,5.98
2023-03-27T10:09:38.047Z,5.93
2023-03-27T10:12:08.186Z,5.89
2023-03-27T10:14:48.473Z,5.82
2023-03-27T10:17:24.771Z,5.72
2023-03-27T10:19:58.276Z,5.64
2023-03-27T10:22:32.020Z,5.56
2023-03-27T10:25:01.836Z,5.48
2023-03-27T10:27:31.374Z,5.44
2023-03-27T10:29:58.126Z,5.40
2023-03-27T10:32:46.299Z,5.37
2023-03-27T10:35:27.471Z,5.34
2023-03-27T10:37:55.628Z,5.32
2023-03-27T10:40:27.076Z,5.30
2023-03-27T10:42:59.760Z,5.28
2023-03-27T10:45:26.708Z,5.26
2023-03-27T10:48:00.534Z,5.24
2023-03-27T10:50:58.634Z,5.25
2023-03-27T10:54:01.972Z,5.22
2023-03-27T10:56:54.935Z,5.20
2023-03-27T10:59:41.021Z,5.18
2023-03-27T11:02:17.649Z,5.15
2023-03-27T11:04:51.963Z,5.11
2023-03-27T11:07:27.628Z,5.05
2023-03-27T11:10:21.827Z,5.02
2023-03-27T11:13:01.870Z,5.00
2023-03-27T11:15:42.444Z,4.94
2023-03-27T11:18:18.821Z,4.86
2023-03-27T11:20:57.001Z,4.81
2023-03-27T11:23:44.847Z,4.73
2023-03-27T11:26:16.050Z,4.64
2023-03-27T11:28:49.704Z,4.57
2023-03-27T11:31:38.491Z,4.49
2023-03-27T11:34:28.869Z,4.43
2023-03-27T11:37:24.627Z,4.39
2023-03-27T11:40:04.625Z,4.35
2023-03-27T11:42:37.189Z,4.30
2023-03-27T11:45:07.683Z,4.21
2023-03-27T11:47:41.181Z,4.12
2023-03-27T11:50:30.858Z,4.03
2023-03-27T11:53:23.707Z,3.94
2023-03-27T11:56:04.314Z,3.88
2023-03-27T11:58:45.603Z,3.81
2023-03-27T12:01:28.131Z,3.68
2023-03-27T12:04:17.465Z,3.55
2023-03-27T12:07:04.274Z,3.45
2023-03-27T12:09:48.660Z,3.37
2023-03-27T12:12:42.517Z,3.33
2023-03-27T12:15:29.370Z,3.28
2023-03-27T12:18:00.584Z,3.22
2023-03-27T12:20:52.909Z,3.18
2023-03-27T12:23:49.165Z,3.17
2023-03-27T12:26:49.532Z,3.14
2023-03-27T12:29:31.255Z,3.08
2023-03-27T12:32:13.154Z,3.01
2023-03-27T12:34:55.058Z,2.93
2023-03-27T12:37:28.112Z,2.82
2023-03-27T12:39:59.435Z,2.76
2023-03-27T12:43:03.189Z,2.72
2023-03-27T12:45:29.888Z,2.71
2023-03-27T12:48:10.750Z,2.70
2023-03-27T12:50:55.668Z,2.67
2023-03-27T12:53:25.647Z,2.65
2023-03-27T12:56:27.378Z,2.61
2023-03-27T12:58:55.664Z,2.59
2023-03-27T13:01:51.611Z,2.57
2023-03-27T13:04:48.164Z,2.56
2023-03-27T13:07:38.353Z,2.53
2023-03-27T13:10:48.145Z,2.49
2023-03-27T13:13:20.636Z,2.47
2023-03-27T13:16:06.819Z,2.45
2023-03-27T13:19:12.700Z,2.40
2023-03-27T13:21:59.853Z,2.36
2023-03-27T13:24:40.713Z,2.34
2023-03-27T13:27:24.766Z,2.33
2023-03-27T13:29:53.461Z,2.31
2023-03-27T13:32:31.630Z,2.29
2023-03-27T13:35:28.497Z,2.28
2023-03-27T13:38:00.851Z,2.28
2023-03-27T13:40:27.835Z,2.26
2023-03-27T13:43:22.136Z,2.25
2023-03-27T13:45:55.623Z,2.24
2023-03-27T13:48:39.791Z,2.24
2023-03-27T13:51:41.961Z,2.24
2023-03-27T13:54:22.603Z,2.22
2023-03-27T13:57:03.592Z,2.21
2023-03-27T13:59:47.272Z,2.21
2023-03-27T14:02:42.184Z,2.17
2023-03-27T14:05:37.059Z,2.14
2023-03-27T14:08:21.063Z,2.12
2023-03-27T14:11:09.226Z,2.11
2023-03-27T14:13:55.926Z,2.11
2023-03-27T14:16:36.902Z,2.11
2023-03-27T14:19:17.532Z,2.13
2023-03-27T14:22:08.204Z,2.10
2023-03-27T14:24:44.377Z,2.12
2023-03-27T14:27:17.389Z,2.11
2023-03-27T14:29:45.428Z,2.11
2023-03-27T14:32:15.788Z,2.14
2023-03-27T14:37:45.295Z,2.21
2023-03-27T14:40:42.510Z,2.20
2023-03-27T14:43:12.447Z,2.16
2023-03-27T14:45:41.169Z,2.10
2023-03-27T14:48:22.834Z,2.08
2023-03-27T14:50:54.507Z,2.06
2023-03-27T14:53:27.983Z,2.07
2023-03-27T14:55:56.047Z,2.06
2023-03-27T14:58:25.874Z,2.06
2023-03-27T15:01:00.150Z,2.05
2023-03-27T15:03:30.959Z,2.06
2023-03-27T15:06:27.116Z,2.06
2023-03-27T15:08:58.994Z,2.07
2023-03-27T15:11:33.536Z,2.08
2023-03-27T15:14:03.124Z,2.10
2023-03-27T15:16:36.172Z,2.13
2023-03-27T15:19:14.477Z,2.16
2023-03-27T15:22:02.058Z,2.18
2023-03-27T15:24:51.253Z,2.20
2023-03-27T15:27:40.860Z,2.22
2023-03-27T15:30:18.013Z,2.23
2023-03-27T15:32:50.821Z,2.24
2023-03-27T15:35:23.779Z,2.24
2023-03-27T15:37:51.174Z,2.24
2023-03-27T15:40:26.799Z,2.22
2023-03-27T15:43:02.354Z,2.20
2023-03-27T15:45:39.972Z,2.19
2023-03-27T15:48:25.207Z,2.18
2023-03-27T15:51:01.704Z,2.16
2023-03-27T15:53:40.888Z,2.14
2023-03-27T15:56:23.310Z,2.13
2023-03-27T15:59:06.789Z,2.11
2023-03-27T16:01:39.474Z,2.09
2023-03-27T16:04:14.772Z,2.08
2023-03-27T16:06:45.877Z,2.07
2023-03-27T16:09:28.753Z,2.05
2023-03-27T16:11:57.782Z,2.04
2023-03-27T16:14:33.007Z,2.03
2023-03-27T16:17:09.884Z,2.00
2023-03-27T16:19:48.309Z,1.98
2023-03-27T16:22:23.623Z,1.97
2023-03-27T16:24:51.478Z,1.96
2023-03-27T16:27:24.049Z,1.95
2023-03-27T16:29:51.827Z,1.94
2023-03-27T16:32:20.649Z,1.95
2023-03-27T16:34:47.908Z,1.94
2023-03-27T16:37:15.769Z,1.93
2023-03-27T16:39:43.200Z,1.92
2023-03-27T16:42:17.267Z,1.90
2023-03-27T16:44:45.614Z,1.89
2023-03-27T16:47:14.343Z,1.88
2023-03-27T16:49:41.723Z,1.88
2023-03-27T16:52:08.465Z,1.86
2023-03-27T16:54:35.322Z,1.85
2023-03-27T16:57:02.644Z,1.83
2023-03-27T16:59:29.390Z,1.82
2023-03-27T17:01:56.291Z,1.80
2023-03-27T17:04:23.308Z,1.78
2023-03-27T17:06:50.856Z,1.76
2023-03-27T17:09:18.290Z,1.73
2023-03-27T17:11:45.047Z,1.71
2023-03-27T17:14:12.203Z,1.69
2023-03-27T17:16:39.963Z,1.65
2023-03-27T17:19:07.174Z,1.61
2023-03-27T17:21:34.034Z,1.58
2023-03-27T17:24:01.110Z,1.57
2023-03-27T17:26:31.172Z,1.54
2023-03-27T17:28:59.134Z,1.52
2023-03-27T17:31:27.728Z,1.49
2023-03-27T17:33:55.674Z,1.46
2023-03-27T17:36:36.773Z,1.45
2023-03-27T17:39:08.300Z,1.45
2023-03-27T17:41:35.084Z,1.44
2023-03-27T17:44:01.878Z,1.42
2023-03-27T17:46:28.714Z,1.42
2023-03-27T17:48:57.258Z,1.41
2023-03-27T17:51:24.080Z,1.41
2023-03-27T17:53:50.886Z,1.40
2023-03-27T17:56:17.735Z,1.41
2023-03-27T17:58:50.122Z,1.41
2023-03-27T18:01:19.578Z,1.41
2023-03-27T18:03:46.850Z,1.39
2023-03-27T18:06:17.465Z,1.39
2023-03-27T18:08:46.258Z,1.38
2023-03-27T18:11:15.703Z,1.38
2023-03-27T18:13:42.856Z,1.37
2023-03-27T18:16:13.609Z,1.36
2023-03-27T18:18:40.532Z,1.34
2023-03-27T18:21:07.715Z,1.33
2023-03-27T18:23:46.169Z,1.30
2023-03-27T18:26:14.606Z,1.28
2023-03-27T18:28:41.654Z,1.26
2023-03-27T18:31:11.415Z,1.24
2023-03-27T18:33:38.689Z,1.20
2023-03-27T18:36:11.548Z,1.17
2023-03-27T18:38:40.375Z,1.14
2023-03-27T18:41:07.891Z,1.10
2023-03-27T18:43:34.744Z,1.07
2023-03-27T18:46:07.158Z,1.05
2023-03-27T18:48:35.467Z,1.02
2023-03-27T18:51:04.825Z,0.99
2023-03-27T18:53:32.162Z,0.97
2023-03-27T18:56:00.031Z,0.96
2023-03-27T18:58:29.070Z,0.94
2023-03-27T19:00:57.307Z,0.94
2023-03-27T19:03:26.784Z,0.94
2023-03-27T19:05:53.999Z,0.93
2023-03-27T19:08:22.022Z,0.93
2023-03-27T19:10:49.464Z,0.92
2023-03-27T19:13:16.349Z,0.92
2023-03-27T19:15:44.089Z,0.91
2023-03-27T19:18:11.217Z,0.91
2023-03-27T19:20:38.220Z,0.90
2023-03-27T19:23:05.150Z,0.89
2023-03-27T19:25:35.412Z,0.86
2023-03-27T19:28:03.929Z,0.84
2023-03-27T19:30:32.510Z,0.81
2023-03-27T19:32:59.499Z,0.79
2023-03-27T19:35:26.682Z,0.75
2023-03-27T19:37:54.788Z,0.72
2023-03-27T19:40:22.230Z,0.69
2023-03-27T19:42:48.958Z,0.67
2023-03-27T19:45:16.398Z,0.64
2023-03-27T19:47:43.449Z,0.62
2023-03-27T19:50:11.192Z,0.60
2023-03-27T19:52:38.039Z,0.58
2023-03-27T19:55:05.611Z,0.56
2023-03-27T19:57:32.586Z,0.53
2023-03-27T19:59:59.342Z,0.51
2023-03-27T20:02:27.891Z,0.47
2023-03-27T20:04:54.841Z,0.45
2023-03-27T20:07:21.816Z,0.44
2023-03-27T20:09:48.597Z,0.42
2023-03-27T20:12:15.945Z,0.41
2023-03-27T20:14:46.535Z,0.39
2023-03-27T20:17:27.972Z,0.38
2023-03-27T20:19:55.782Z,0.37
2023-03-27T20:22:22.654Z,0.36
2023-03-27T20:24:49.604Z,0.34
2023-03-27T20:27:19.892Z,0.33
2023-03-27T20:29:48.083Z,0.32
2023-03-27T20:32:15.121Z,0.30
2023-03-27T20:34:41.854Z,0.28
2023-03-27T20:37:14.666Z,0.26
2023-03-27T20:39:47.439Z,0.24
2023-03-27T20:42:16.722Z,0.22
2023-03-27T20:44:44.716Z,0.19
2023-03-27T20:47:12.492Z,0.17
2023-03-27T20:49:43.079Z,0.15
2023-03-27T20:52:19.693Z,0.13
2023-03-27T20:54:48.141Z,0.11
2023-03-27T20:57:15.259Z,0.08
2023-03-27T20:59:41.952Z,0.07
2023-03-27T21:02:16.621Z,0.04
2023-03-27T21:04:43.384Z,0.00
2023-03-27T21:07:10.332Z,-0.03
2023-03-27T21:09:38.595Z,-0.05
2023-03-27T21:12:05.939Z,-0.09
2023-03-27T21:14:32.949Z,-0.12
2023-03-27T21:16:59.987Z,-0.14
2023-03-27T21:19:26.942Z,-0.17
2023-03-27T21:21:53.887Z,-0.20
2023-03-27T21:24:20.890Z,-0.22
2023-03-27T21:26:47.842Z,-0.25
2023-03-27T21:29:15.571Z,-0.28
2023-03-27T21:31:43.356Z,-0.30
2023-03-27T21:34:11.263Z,-0.31
2023-03-27T21:36:41.820Z,-0.34
2023-03-27T21:39:09.266Z,-0.36
2023-03-27T22:00:35.633Z,-0.44
2023-03-27T22:03:03.175Z,-0.46
2023-03-27T22:05:30.051Z,-0.47
2023-03-27T22:07:57.741Z,-0.49
2023-03-27T22:10:24.482Z,-0.50
2023-03-27T22:12:51.184Z,-0.52
2023-03-27T22:15:18.181Z,-0.55
2023-03-27T22:17:45.193Z,-0.57
2023-03-27T22:20:12.114Z,-0.60
2023-03-27T22:22:38.932Z,-0.62
2023-03-27T22:25:06.327Z,-0.64
2023-03-27T22:27:33.161Z,-0.67
2023-03-27T22:30:00.223Z,-0.70
2023-03-27T22:32:27.018Z,-0.73
2023-03-27T22:34:53.745Z,-0.76
2023-03-27T22:37:21.063Z,-0.78
2023-03-27T22:39:47.807Z,-0.82
2023-03-27T22:42:14.673Z,-0.84
2023-03-27T22:44:41.694Z,-0.88
2023-03-27T22:47:08.621Z,-0.91
2023-03-27T22:49:36.456Z,-0.94
2023-03-27T22:52:04.707Z,-0.98
2023-03-27T22:54:31.517Z,-1.02
2023-03-27T22:56:59.117Z,-1.05
2023-03-27T22:59:26.559Z,-1.09
2023-03-27T23:01:53.356Z,-1.12
2023-03-27T23:04:20.109Z,-1.16
2023-03-27T23:06:46.977Z,-1.20
2023-03-27T23:09:13.797Z,-1.25
2023-03-27T23:11:41.369Z,-1.29
2023-03-27T23:14:08.110Z,-1.34
2023-03-27T23:16:34.807Z,-1.39
2023-03-27T23:19:01.563Z,-1.44
2023-03-27T23:21:28.393Z,-1.49
2023-03-27T23:23:55.601Z,-1.54
2023-03-27T23:26:27.654Z,-1.59
2023-03-27T23:28:54.424Z,-1.64
2023-03-27T23:31:21.269Z,-1.69
2023-03-27T23:33:50.725Z,-1.74
2023-03-27T23:36:21.028Z,-1.79
2023-03-27T23:38:47.935Z,-1.84
2023-03-27T23:41:16.103Z,-1.88
2023-03-27T23:43:43.625Z,-1.92
2023-03-27T23:46:12.762Z,-1.95
2023-03-27T23:48:42.041Z,-1.98
2023-03-27T23:51:10.721Z,-2.00
2023-03-27T23:53:38.264Z,-2.02
2023-03-27T23:56:05.841Z,-2.04
2023-03-27T23:58:33.241Z,-2.05
